Time;durP1;ratioP1;P1;durP2;ratioP2;P2;SDS_P1;SDS_P2;PMS_P1;PMS_P2;Temp;Humidity;BMP_temperature;BMP_pressure;BME280_temperature;BME280_humidity;BME280_pressure;Samples;Min_cycle;Max_cycle;Signal;HPM_P1;HPM_P2
2023/10/12 07:11:14;;;;;;;59.03;32.72;;;18.80;99.90;;;;;;5091596;22;20056;-74
2023/10/12 07:13:41;;;;;;;60.17;34.70;;;18.80;99.90;;;;;;5066258;28;20393;-74
2023/10/12 07:16:16;;;;;;;64.80;35.83;;;18.90;99.90;;;;;;5074461;28;20035;-74
2023/10/12 07:18:45;;;;;;;70.20;36.50;;;18.90;99.90;;;;;;5058117;28;20027;-74
2023/10/12 07:21:21;;;;;;;69.55;37.13;;;19.00;99.90;;;;;;5061026;28;20028;-74
2023/10/12 07:23:52;;;;;;;69.97;37.35;;;19.00;99.90;;;;;;5062837;28;20039;-74
2023/10/12 07:26:23;;;;;;;79.43;39.50;;;19.10;99.90;;;;;;5067895;28;20401;-74
2023/10/12 07:28:50;;;;;;;76.07;42.15;;;19.10;99.90;;;;;;5064572;28;20009;-74
2023/10/12 07:33:59;;;;;;;78.45;40.10;;;19.10;99.90;;;;;;5064118;28;20033;-74
2023/10/12 07:36:44;;;;;;;74.00;41.38;;;19.10;99.90;;;;;;5064617;28;20116;-74
2023/10/12 07:39:20;;;;;;;81.57;43.03;;;19.20;99.90;;;;;;5060247;28;20032;-74
2023/10/12 07:42:36;;;;;;;79.88;42.47;;;19.20;99.90;;;;;;5054212;28;20025;-74
2023/10/12 07:44:54;;;;;;;78.75;43.15;;;19.20;99.90;;;;;;5050136;28;20131;-74
2023/10/12 07:47:31;;;;;;;81.65;42.88;;;19.30;99.90;;;;;;5074335;28;20051;-74
2023/10/12 07:49:57;;;;;;;89.68;42.47;;;19.30;99.90;;;;;;5061974;28;20074;-74
2023/10/12 07:55:17;;;;;;;81.93;42.78;;;19.40;99.90;;;;;;5063672;28;20040;-74
2023/10/12 07:57:47;;;;;;;89.05;43.85;;;19.50;99.90;;;;;;5063784;28;20028;-74
2023/10/12 08:08:16;;;;;;;88.65;46.65;;;19.60;99.90;;;;;;5068995;28;20029;-74
2023/10/12 08:13:15;;;;;;;84.90;46.45;;;19.70;99.90;;;;;;5067518;28;19915;-74
2023/10/12 08:23:48;;;;;;;93.50;48.65;;;19.80;99.90;;;;;;5061369;28;20037;-74
2023/10/12 08:26:33;;;;;;;86.50;47.00;;;19.80;99.90;;;;;;5067591;28;20013;-74
2023/10/12 08:28:59;;;;;;;98.13;48.65;;;19.80;99.90;;;;;;5054572;28;20394;-74
2023/10/12 08:31:28;;;;;;;91.75;47.22;;;19.80;99.90;;;;;;5068700;28;20037;-74
2023/10/12 08:34:13;;;;;;;93.90;48.63;;;19.90;99.90;;;;;;5063159;28;20107;-74
2023/10/12 08:37:08;;;;;;;101.32;49.38;;;19.90;98.20;;;;;;5072042;28;20484;-74
2023/10/12 08:39:37;;;;;;;102.93;52.22;;;19.90;99.00;;;;;;5061355;28;20041;-74
2023/10/12 08:44:59;;;;;;;93.68;51.92;;;20.00;99.30;;;;;;5062383;28;20064;-74
2023/10/12 08:47:44;;;;;;;93.50;51.17;;;20.00;99.10;;;;;;5056243;28;20195;-74
2023/10/12 08:52:50;;;;;;;101.10;55.72;;;20.00;99.30;;;;;;5066453;28;20048;-74
2023/10/12 08:55:19;;;;;;;96.80;50.42;;;20.00;94.80;;;;;;5063451;28;20051;-74
2023/10/12 08:58:11;;;;;;;94.00;49.88;;;20.00;97.20;;;;;;5052827;28;20056;-74
2023/10/12 09:05:51;;;;;;;87.15;49.08;;;20.20;95.00;;;;;;5064357;28;20521;-74
2023/10/12 09:10:55;;;;;;;87.07;46.50;;;20.40;99.90;;;;;;5067872;28;20036;-74
2023/10/12 09:13:22;;;;;;;93.00;46.08;;;20.50;96.90;;;;;;5039771;28;20036;-74
2023/10/12 09:15:55;;;;;;;88.43;46.28;;;20.50;92.80;;;;;;5071215;28;20056;-74
2023/10/12 09:18:29;;;;;;;88.80;48.72;;;20.50;89.70;;;;;;5062696;28;20028;-74
2023/10/12 09:23:46;;;;;;;89.55;45.92;;;20.60;67.20;;;;;;5063003;28;20513;-74
2023/10/12 09:26:15;;;;;;;83.13;44.20;;;20.70;78.20;;;;;;5060674;28;20021;-74
2023/10/12 09:31:13;;;;;;;83.28;46.05;;;20.60;66.20;;;;;;5073603;28;20115;-76
2023/10/12 09:36:53;;;;;;;94.60;45.63;;;20.70;54.50;;;;;;4985957;28;20089;-76
2023/10/12 09:39:24;;;;;;;92.95;48.08;;;20.60;57.40;;;;;;5044756;28;20185;-76
2023/10/12 09:41:59;;;;;;;95.25;48.97;;;20.70;72.10;;;;;;5075582;28;20064;-76
2023/10/12 09:44:26;;;;;;;89.95;48.20;;;20.80;53.60;;;;;;5065042;28;20131;-76
2023/10/12 09:46:56;;;;;;;95.68;46.88;;;20.80;50.20;;;;;;5070597;28;20024;-77
2023/10/12 09:49:27;;;;;;;89.32;46.65;;;20.80;30.50;;;;;;5059491;23;20040;-73
2023/10/12 09:52:04;;;;;;;94.03;47.47;;;20.90;33.70;;;;;;5071575;28;20394;-73
2023/10/12 09:54:45;;;;;;;85.63;45.22;;;21.00;53.80;;;;;;5083460;28;20082;-73
2023/10/12 09:57:26;;;;;;;83.18;45.67;;;21.10;47.40;;;;;;5085685;28;20428;-74
2023/10/12 10:00:17;;;;;;;85.30;45.20;;;21.10;19.90;;;;;;5061780;28;20071;-73
2023/10/12 10:02:44;;;;;;;90.10;47.25;;;21.10;22.90;;;;;;5080362;28;20055;-73
2023/10/12 10:07:53;;;;;;;84.30;45.33;;;21.10;26.60;;;;;;5088039;28;20078;-73
2023/10/12 10:10:34;;;;;;;83.68;44.13;;;21.20;33.30;;;;;;5076027;28;20017;-74
2023/10/12 10:13:10;;;;;;;97.22;47.25;;;21.20;34.80;;;;;;5064552;28;20032;-73
2023/10/12 10:15:59;;;;;;;93.97;47.53;;;21.30;37.70;;;;;;5056403;28;20028;-74
2023/10/12 10:18:28;;;;;;;84.25;46.72;;;21.40;39.00;;;;;;5079536;28;20550;-74
2023/10/12 10:20:56;;;;;;;93.15;47.58;;;21.40;35.20;;;;;;5082933;28;20477;-73
2023/10/12 10:23:23;;;;;;;82.13;46.70;;;21.50;45.40;;;;;;5077334;28;20376;-74
2023/10/12 10:26:16;;;;;;;84.80;46.55;;;21.50;39.60;;;;;;5081012;28;20020;-73
2023/10/12 10:28:54;;;;;;;92.10;46.65;;;21.50;27.10;;;;;;5059469;28;20266;-73
2023/10/12 10:31:28;;;;;;;86.97;45.47;;;21.60;4.30;;;;;;5065773;28;20022;-74
2023/10/12 10:34:01;;;;;;;95.57;48.20;;;21.60;12.30;;;;;;5062682;28;20335;-74
2023/10/12 10:36:34;;;;;;;91.38;45.42;;;21.70;23.90;;;;;;5077756;28;20028;-74
2023/10/12 10:41:55;;;;;;;80.50;45.80;;;21.80;10.90;;;;;;5082825;28;20036;-73
2023/10/12 10:44:22;;;;;;;93.95;44.40;;;21.90;1.20;;;;;;5066140;28;20052;-74
2023/10/12 10:46:57;;;;;;;83.20;42.20;;;21.90;13.30;;;;;;5065400;28;20042;-73
2023/10/12 10:49:30;;;;;;;85.03;44.30;;;22.00;8.10;;;;;;5075674;28;20058;-73
2023/10/12 10:54:32;;;;;;;94.10;43.65;;;22.10;1.00;;;;;;5073712;28;20521;-74
2023/10/12 10:56:59;;;;;;;80.25;42.33;;;22.20;1.00;;;;;;5085999;28;20020;-74
2023/10/12 10:59:25;;;;;;;81.50;42.45;;;22.30;1.00;;;;;;5078894;28;20020;-73
2023/10/12 11:01:59;;;;;;;87.13;44.10;;;22.30;1.00;;;;;;5072999;28;20043;-74
2023/10/12 11:07:03;;;;;;;89.60;45.92;;;22.40;1.00;;;;;;5065790;28;20032;-73
2023/10/12 11:09:54;;;;;;;93.00;45.00;;;22.30;1.00;;;;;;5057014;28;20081;-74
2023/10/12 11:12:20;;;;;;;80.13;43.05;;;22.40;1.00;;;;;;5069707;28;20024;-73
2023/10/12 11:14:58;;;;;;;80.70;43.88;;;22.50;1.00;;;;;;5071579;28;20025;-73
2023/10/12 11:17:30;;;;;;;76.50;41.95;;;22.40;1.00;;;;;;5067297;28;20024;-74
2023/10/12 11:19:57;;;;;;;82.75;42.58;;;22.40;1.00;;;;;;5069823;28;20024;-74
2023/10/12 11:22:23;;;;;;;87.95;43.70;;;22.50;1.00;;;;;;5053019;28;20179;-74
2023/10/12 11:24:50;;;;;;;81.32;40.70;;;22.40;1.00;;;;;;5068925;28;20025;-74
2023/10/12 11:27:32;;;;;;;79.25;43.22;;;22.60;1.00;;;;;;5059204;28;20485;-73
2023/10/12 11:30:07;;;;;;;84.95;39.47;;;22.60;1.00;;;;;;5074045;28;20024;-74
2023/10/12 11:32:53;;;;;;;79.78;41.45;;;22.60;1.00;;;;;;5078532;28;20016;-74
2023/10/12 11:35:42;;;;;;;82.25;39.67;;;22.60;1.00;;;;;;5077809;28;20027;-74
2023/10/12 11:38:19;;;;;;;82.60;42.13;;;22.60;1.00;;;;;;5079303;28;20103;-74
2023/10/12 11:40:58;;;;;;;75.68;37.38;;;22.70;1.00;;;;;;5074201;28;20075;-73
2023/10/12 11:43:44;;;;;;;78.22;37.78;;;22.80;1.00;;;;;;5080916;28;20020;-74
2023/10/12 11:46:10;;;;;;;67.55;39.45;;;22.90;1.00;;;;;;5081346;28;20016;-73
2023/10/12 11:48:36;;;;;;;72.80;38.97;;;22.90;1.00;;;;;;5073784;28;20096;-73
2023/10/12 11:51:12;;;;;;;78.40;38.03;;;22.90;1.00;;;;;;5079335;28;20385;-73
2023/10/12 11:53:38;;;;;;;73.10;39.65;;;23.00;1.00;;;;;;5080346;28;20027;-73
2023/10/12 11:56:13;;;;;;;72.32;37.75;;;23.00;1.00;;;;;;5084092;28;20024;-73
2023/10/12 11:58:55;;;;;;;72.80;38.28;;;23.00;1.00;;;;;;5056912;28;20029;-74
2023/10/12 12:01:22;;;;;;;70.50;37.47;;;23.10;1.00;;;;;;5080738;28;20085;-73
2023/10/12 12:03:53;;;;;;;71.65;37.92;;;23.00;1.00;;;;;;5078295;28;20505;-73
2023/10/12 12:06:19;;;;;;;71.17;35.50;;;23.00;1.00;;;;;;5076940;28;20077;-73
2023/10/12 12:08:48;;;;;;;74.05;35.65;;;23.10;1.00;;;;;;5082525;28;20051;-74
2023/10/12 12:11:20;;;;;;;76.75;37.97;;;23.20;1.00;;;;;;5063208;28;20381;-73
2023/10/12 12:13:51;;;;;;;72.00;36.42;;;23.20;1.00;;;;;;5076084;28;20504;-74
2023/10/12 12:16:21;;;;;;;64.75;35.40;;;23.40;1.00;;;;;;5080150;28;20063;-73
2023/10/12 12:18:50;;;;;;;62.72;34.13;;;23.40;99.90;;;;;;5078147;28;20150;-73
2023/10/12 12:21:17;;;;;;;65.38;34.17;;;23.40;99.90;;;;;;5082813;28;20115;-73
2023/10/12 12:23:48;;;;;;;71.50;34.03;;;23.40;99.90;;;;;;5077080;28;20020;-73
2023/10/12 12:26:18;;;;;;;66.57;30.98;;;23.40;99.90;;;;;;5079257;28;20080;-73
2023/10/12 12:28:44;;;;;;;58.78;30.70;;;23.50;99.90;;;;;;5081036;28;20068;-73
2023/10/12 12:31:14;;;;;;;59.90;32.45;;;23.50;99.90;;;;;;5077728;28;20020;-73
2023/10/12 12:33:43;;;;;;;56.50;29.98;;;23.40;99.90;;;;;;5078618;28;20012;-73
2023/10/12 12:36:13;;;;;;;54.35;29.48;;;23.40;99.90;;;;;;5081083;28;20024;-73
2023/10/12 12:41:05;;;;;;;69.07;32.55;;;23.30;99.90;;;;;;5077367;28;20533;-73
2023/10/12 12:43:35;;;;;;;59.47;29.67;;;23.20;99.90;;;;;;5081712;28;20032;-73
2023/10/12 12:46:01;;;;;;;56.05;29.80;;;23.20;99.90;;;;;;5077879;28;20020;-73
2023/10/12 12:48:26;;;;;;;57.20;28.25;;;23.20;99.90;;;;;;5075765;28;20028;-73
2023/10/12 12:50:55;;;;;;;57.17;31.85;;;23.20;99.90;;;;;;5078712;28;20039;-73
2023/10/12 12:53:20;;;;;;;56.58;30.20;;;23.20;99.90;;;;;;5079838;28;20032;-74
2023/10/12 12:55:46;;;;;;;58.08;31.02;;;23.20;99.90;;;;;;5057656;28;20024;-73
2023/10/12 12:58:17;;;;;;;58.70;29.75;;;23.20;99.90;;;;;;5078986;28;20107;-73
2023/10/12 13:00:46;;;;;;;54.78;31.92;;;23.30;99.90;;;;;;5082931;28;20074;-75
2023/10/12 13:03:16;;;;;;;59.17;30.45;;;23.30;99.90;;;;;;5078364;28;20028;-76
2023/10/12 13:05:42;;;;;;;68.88;32.70;;;23.30;99.90;;;;;;5076830;28;20024;-75
2023/10/12 13:08:11;;;;;;;58.50;30.95;;;23.30;99.90;;;;;;5083739;28;20028;-75
2023/10/12 13:10:37;;;;;;;58.85;30.33;;;23.30;99.90;;;;;;5058303;28;20382;-76
2023/10/12 13:13:03;;;;;;;53.22;29.45;;;23.30;99.90;;;;;;5070111;28;20047;-75
2023/10/12 13:15:31;;;;;;;59.88;30.05;;;23.30;99.90;;;;;;5081422;28;20489;-75
2023/10/12 13:17:58;;;;;;;55.75;29.92;;;23.30;99.90;;;;;;5079072;28;20038;-75
2023/10/12 13:20:29;;;;;;;52.83;27.52;;;23.20;99.90;;;;;;5083249;28;20043;-75
2023/10/12 13:22:58;;;;;;;55.17;26.52;;;23.30;99.90;;;;;;5069612;28;20036;-75
2023/10/12 13:25:26;;;;;;;44.08;25.67;;;23.30;99.90;;;;;;5078841;28;20100;-75
2023/10/12 13:27:52;;;;;;;45.63;25.27;;;23.40;99.90;;;;;;5085401;28;20070;-75
2023/10/12 13:30:18;;;;;;;43.28;25.92;;;23.40;99.90;;;;;;5082156;28;20048;-76
2023/10/12 13:32:48;;;;;;;56.60;26.70;;;23.50;28.10;;;;;;5081731;28;20024;-76
2023/10/12 13:35:47;;;;;;;54.55;27.63;;;23.50;1.00;;;;;;5053667;28;20053;-75
2023/10/12 13:38:10;;;;;;;56.03;26.50;;;23.60;1.00;;;;;;5079615;28;20119;-75
2023/10/12 13:40:40;;;;;;;58.30;27.30;;;23.70;1.00;;;;;;5078001;28;20095;-76
2023/10/12 13:43:14;;;;;;;55.20;28.75;;;23.60;1.00;;;;;;5067885;28;20059;-76
2023/10/12 13:45:47;;;;;;;59.05;27.00;;;23.60;1.00;;;;;;5052344;28;20039;-75
2023/10/12 13:48:27;;;;;;;54.17;26.02;;;23.70;1.00;;;;;;5068070;28;20504;-76
2023/10/12 13:51:31;;;;;;;52.83;28.27;;;23.80;1.00;;;;;;5077022;28;20149;-76
2023/10/12 13:53:58;;;;;;;47.95;26.17;;;23.80;99.90;;;;;;5072629;28;20078;-75
2023/10/12 13:56:24;;;;;;;46.22;24.30;;;23.70;1.00;;;;;;5067882;28;20420;-75
2023/10/12 13:58:52;;;;;;;50.15;24.52;;;23.70;1.00;;;;;;5077566;28;20102;-76
2023/10/12 14:01:23;;;;;;;47.97;24.52;;;23.70;1.00;;;;;;5060845;28;20441;-76
2023/10/12 14:04:00;;;;;;;45.28;22.88;;;23.80;99.90;;;;;;5079090;28;20033;-75
2023/10/12 14:06:27;;;;;;;44.65;23.80;;;23.80;1.00;;;;;;5076464;28;20157;-75
2023/10/12 14:08:54;;;;;;;46.17;23.30;;;23.80;1.00;;;;;;5077189;28;20016;-76
2023/10/12 14:11:20;;;;;;;38.55;22.30;;;23.80;1.00;;;;;;5076719;28;20012;-76
2023/10/12 14:13:48;;;;;;;48.25;25.80;;;23.80;1.00;;;;;;5081272;28;20035;-75
2023/10/12 14:16:14;;;;;;;45.67;24.70;;;23.80;1.00;;;;;;5060300;28;20019;-76
2023/10/12 14:18:41;;;;;;;46.70;22.60;;;23.70;1.00;;;;;;5081902;28;20028;-76
2023/10/12 14:21:11;;;;;;;46.35;26.08;;;23.70;2.90;;;;;;5065977;28;20612;-76
2023/10/12 14:23:45;;;;;;;42.33;24.23;;;23.70;1.00;;;;;;5083615;28;20031;-76
2023/10/12 14:26:17;;;;;;;50.60;24.65;;;23.70;12.10;;;;;;5077704;28;20016;-75
2023/10/12 14:28:50;;;;;;;42.15;23.08;;;23.60;1.00;;;;;;5085563;28;20012;-75
2023/10/12 14:31:16;;;;;;;44.25;24.02;;;23.60;43.20;;;;;;5088770;28;20020;-73
2023/10/12 14:33:42;;;;;;;50.97;26.75;;;23.60;99.90;;;;;;5065374;28;20024;-73
2023/10/12 14:36:09;;;;;;;53.70;26.13;;;23.60;39.00;;;;;;5086283;28;20069;-73
2023/10/12 14:38:36;;;;;;;46.30;26.92;;;23.60;47.90;;;;;;5064269;28;20029;-73
2023/10/12 14:41:05;;;;;;;46.92;25.80;;;23.70;1.00;;;;;;5064885;28;20089;-73
2023/10/12 14:43:32;;;;;;;50.33;25.73;;;23.70;63.20;;;;;;5063824;28;20393;-73
2023/10/12 14:45:58;;;;;;;46.60;25.92;;;23.70;94.50;;;;;;5070571;28;20434;-73
2023/10/12 14:48:27;;;;;;;48.88;25.77;;;23.80;99.90;;;;;;5067608;28;20032;-73
2023/10/12 14:51:16;;;;;;;47.88;25.65;;;23.80;3.20;;;;;;5082436;28;20671;-73
2023/10/12 14:53:47;;;;;;;43.40;26.02;;;23.80;37.50;;;;;;5083705;28;20090;-73
2023/10/12 14:56:14;;;;;;;62.90;30.42;;;23.70;82.70;;;;;;5088235;28;20074;-73
2023/10/12 14:58:40;;;;;;;42.00;25.30;;;23.70;1.60;;;;;;5082736;28;20489;-73
2023/10/12 15:01:13;;;;;;;42.40;24.90;;;23.70;73.30;;;;;;5087647;28;20035;-73
2023/10/12 15:03:40;;;;;;;50.67;26.77;;;23.70;51.00;;;;;;5084476;28;20157;-73
2023/10/12 15:06:05;;;;;;;51.88;25.65;;;23.80;45.00;;;;;;5084962;28;20024;-73
2023/10/12 15:08:31;;;;;;;45.25;25.95;;;23.80;1.00;;;;;;5051570;28;20027;-73
2023/10/12 15:10:59;;;;;;;46.20;24.15;;;23.70;8.50;;;;;;5068046;28;20052;-73
2023/10/12 15:13:28;;;;;;;51.83;26.35;;;23.70;77.20;;;;;;5084736;28;20485;-73
2023/10/12 15:15:54;;;;;;;47.20;25.70;;;23.60;26.10;;;;;;5085638;28;20028;-73
2023/10/12 15:18:23;;;;;;;48.70;26.60;;;23.60;2.60;;;;;;5085132;28;20024;-73
2023/10/12 15:20:50;;;;;;;46.90;25.65;;;23.50;12.00;;;;;;5066338;28;20115;-73
2023/10/12 15:23:16;;;;;;;52.78;25.30;;;23.50;10.70;;;;;;5083620;28;20020;-73
2023/10/12 15:25:42;;;;;;;38.17;23.45;;;23.50;48.30;;;;;;5065497;28;20024;-73
2023/10/12 15:28:09;;;;;;;54.30;24.98;;;23.40;99.90;;;;;;5070677;28;20032;-73
2023/10/12 15:30:37;;;;;;;43.53;25.00;;;23.40;99.90;;;;;;5061433;28;20040;-73
2023/10/12 15:33:04;;;;;;;45.08;24.40;;;23.40;58.30;;;;;;5081388;28;20091;-73
2023/10/12 15:35:30;;;;;;;38.80;21.77;;;23.40;92.00;;;;;;5084356;28;20062;-73
2023/10/12 15:37:57;;;;;;;43.22;22.17;;;23.40;99.90;;;;;;5077149;28;20016;-73
2023/10/12 15:40:27;;;;;;;43.50;21.42;;;23.30;99.90;;;;;;5081742;28;20122;-73
2023/10/12 15:43:04;;;;;;;41.83;20.95;;;23.30;99.90;;;;;;5087048;28;20028;-73
2023/10/12 15:45:30;;;;;;;33.90;19.63;;;23.30;99.90;;;;;;5060157;28;20394;-73
2023/10/12 15:47:56;;;;;;;36.63;19.50;;;23.30;99.90;;;;;;5079618;28;20039;-73
2023/10/12 15:50:25;;;;;;;31.45;18.48;;;23.20;99.90;;;;;;5080718;28;20397;-73
2023/10/12 15:52:53;;;;;;;36.22;19.85;;;23.10;99.90;;;;;;5084907;28;20025;-73
2023/10/12 15:55:19;;;;;;;48.25;21.05;;;23.10;99.90;;;;;;5081955;28;20012;-73
2023/10/12 15:57:46;;;;;;;32.60;19.25;;;23.00;99.90;;;;;;5084199;28;20051;-73
2023/10/12 16:00:23;;;;;;;35.78;18.67;;;22.90;99.90;;;;;;5064609;28;20474;-73
2023/10/12 16:03:00;;;;;;;34.70;20.10;;;22.90;99.90;;;;;;5083050;28;20413;-73
2023/10/12 16:05:32;;;;;;;30.75;19.88;;;22.80;99.90;;;;;;5081265;28;20016;-73
2023/10/12 16:07:59;;;;;;;35.70;18.88;;;22.70;99.90;;;;;;5074209;28;20012;-73
2023/10/12 16:10:28;;;;;;;36.00;19.40;;;22.60;99.90;;;;;;5083904;28;20016;-73
2023/10/12 16:12:55;;;;;;;35.67;17.60;;;22.60;99.90;;;;;;5084012;28;20429;-73
2023/10/12 16:15:24;;;;;;;39.05;17.77;;;22.50;1.00;;;;;;5080465;28;20424;-73
2023/10/12 16:17:50;;;;;;;30.15;16.98;;;22.40;1.00;;;;;;5084102;28;20455;-73
2023/10/12 16:20:16;;;;;;;28.15;17.02;;;22.30;1.00;;;;;;5081417;28;20151;-73
2023/10/12 16:22:44;;;;;;;34.10;17.30;;;22.30;1.00;;;;;;5083691;28;20024;-73
2023/10/12 16:25:17;;;;;;;28.55;16.98;;;22.20;1.00;;;;;;5081811;28;20527;-73
2023/10/12 16:27:48;;;;;;;33.38;16.83;;;22.20;1.00;;;;;;5080915;28;20489;-73
2023/10/12 16:30:15;;;;;;;30.13;16.63;;;22.20;1.00;;;;;;5080825;28;20020;-73
2023/10/12 16:32:51;;;;;;;33.67;17.55;;;22.10;1.00;;;;;;5086735;28;20141;-73
2023/10/12 16:35:20;;;;;;;30.63;16.17;;;22.00;1.00;;;;;;5074341;28;20020;-73
2023/10/12 16:37:50;;;;;;;34.35;16.40;;;22.00;1.00;;;;;;5083844;28;20385;-73
2023/10/12 16:40:16;;;;;;;32.55;17.25;;;21.90;1.00;;;;;;5080892;28;20405;-73
2023/10/12 16:42:43;;;;;;;30.02;16.65;;;21.90;1.00;;;;;;5083235;28;20052;-73
2023/10/12 16:45:18;;;;;;;25.52;16.42;;;21.90;1.00;;;;;;5057310;28;20188;-73
2023/10/12 16:47:45;;;;;;;36.22;16.88;;;21.90;1.00;;;;;;5081150;28;20047;-73
2023/10/12 16:50:12;;;;;;;29.58;16.27;;;21.80;1.00;;;;;;5061412;28;20398;-73
2023/10/12 16:52:38;;;;;;;32.28;17.17;;;21.80;1.00;;;;;;5067973;28;20059;-73
2023/10/12 16:55:05;;;;;;;31.55;17.50;;;21.80;1.00;;;;;;5079783;28;20673;-73
2023/10/12 16:57:34;;;;;;;28.48;17.17;;;21.80;1.00;;;;;;5087826;28;20107;-73
2023/10/12 17:00:00;;;;;;;32.83;16.92;;;21.70;1.00;;;;;;5062109;28;20026;-73
2023/10/12 17:02:26;;;;;;;37.72;18.02;;;21.70;1.00;;;;;;5070431;28;20255;-73
2023/10/12 17:04:53;;;;;;;34.50;16.58;;;21.70;1.00;;;;;;5079072;28;20508;-73
2023/10/12 17:07:26;;;;;;;31.75;17.45;;;21.70;1.00;;;;;;5084866;28;20070;-73
2023/10/12 17:09:55;;;;;;;32.83;16.92;;;21.70;1.00;;;;;;5078845;28;20091;-73
2023/10/12 17:12:24;;;;;;;28.83;18.40;;;21.60;1.00;;;;;;5082317;28;20020;-73
2023/10/12 17:14:51;;;;;;;31.52;17.27;;;21.70;1.00;;;;;;5079772;28;20025;-73
2023/10/12 17:17:20;;;;;;;32.80;16.95;;;21.60;1.00;;;;;;5084974;28;20027;-73
2023/10/12 17:19:46;;;;;;;33.85;16.95;;;21.60;1.00;;;;;;5079781;28;20053;-73
2023/10/12 17:22:14;;;;;;;30.73;17.70;;;21.60;1.00;;;;;;5067694;28;20032;-73
2023/10/12 17:24:43;;;;;;;39.53;19.02;;;21.60;1.00;;;;;;5079724;28;20024;-73
2023/10/12 17:27:09;;;;;;;32.72;16.60;;;21.60;1.00;;;;;;5082386;28;20044;-73
2023/10/12 17:29:35;;;;;;;32.85;17.52;;;21.50;1.00;;;;;;5081273;28;20390;-73
2023/10/12 17:32:04;;;;;;;30.88;17.35;;;21.50;1.00;;;;;;5085934;28;20020;-73
2023/10/12 17:34:30;;;;;;;28.13;17.00;;;21.50;1.00;;;;;;5079391;28;20466;-73
2023/10/12 17:37:01;;;;;;;31.17;17.92;;;21.50;1.00;;;;;;5068833;28;20016;-73
2023/10/12 17:39:29;;;;;;;31.50;18.63;;;21.50;1.00;;;;;;5081798;28;20024;-73
2023/10/12 17:41:57;;;;;;;37.83;17.70;;;21.50;1.00;;;;;;5084056;28;20130;-73
2023/10/12 17:44:23;;;;;;;32.58;18.02;;;21.50;1.00;;;;;;5064100;28;20052;-73
2023/10/12 17:46:49;;;;;;;28.90;16.90;;;21.50;1.00;;;;;;5076347;28;20031;-73
2023/10/12 17:49:17;;;;;;;39.20;18.17;;;21.50;1.00;;;;;;5084634;28;20047;-73
2023/10/12 17:51:44;;;;;;;34.95;19.65;;;21.50;1.00;;;;;;5082392;28;20028;-73
2023/10/12 17:54:11;;;;;;;40.03;18.45;;;21.50;1.00;;;;;;5075035;28;20032;-73
2023/10/12 17:56:40;;;;;;;30.65;18.20;;;21.50;1.00;;;;;;5088067;28;20041;-73
2023/10/12 17:59:06;;;;;;;35.60;19.33;;;21.40;1.00;;;;;;5071960;28;20024;-73
2023/10/12 18:01:40;;;;;;;35.17;18.50;;;21.50;1.00;;;;;;5088794;28;20491;-73
2023/10/12 18:04:08;;;;;;;35.92;19.20;;;21.40;1.00;;;;;;5080176;28;20040;-73
2023/10/12 18:06:35;;;;;;;36.70;20.08;;;21.40;1.00;;;;;;5074418;28;20417;-73
2023/10/12 18:09:03;;;;;;;35.78;18.95;;;21.40;1.00;;;;;;5084060;28;20028;-73
2023/10/12 18:11:31;;;;;;;34.50;19.35;;;21.40;1.00;;;;;;5066588;28;20016;-73
2023/10/12 18:13:59;;;;;;;31.95;20.10;;;21.30;1.00;;;;;;5084111;28;20115;-73
2023/10/12 18:16:27;;;;;;;38.33;19.48;;;21.30;1.00;;;;;;5062573;28;20512;-73
2023/10/12 18:18:53;;;;;;;29.15;18.50;;;21.30;1.00;;;;;;5085950;28;20058;-73
2023/10/12 18:21:19;;;;;;;32.72;19.30;;;21.30;1.00;;;;;;5088511;28;20028;-73
2023/10/12 18:23:45;;;;;;;32.67;19.33;;;21.20;1.00;;;;;;5086493;28;20381;-73
2023/10/12 18:26:13;;;;;;;33.70;19.88;;;21.20;1.00;;;;;;5070230;28;20031;-73
2023/10/12 18:28:39;;;;;;;38.72;20.48;;;21.20;1.00;;;;;;5070356;28;20020;-73
2023/10/12 18:31:08;;;;;;;32.20;18.90;;;21.20;1.00;;;;;;5061356;28;20035;-73
2023/10/12 18:33:38;;;;;;;35.05;20.25;;;21.20;1.00;;;;;;5078940;28;20367;-73
2023/10/12 18:36:07;;;;;;;34.13;20.77;;;21.10;1.00;;;;;;5086281;28;20458;-74
2023/10/12 18:38:38;;;;;;;41.53;21.75;;;21.00;1.00;;;;;;5084481;28;20051;-74
2023/10/12 18:41:15;;;;;;;37.30;19.67;;;21.00;1.00;;;;;;5083424;28;20025;-72
2023/10/12 18:43:42;;;;;;;35.97;20.65;;;21.00;1.00;;;;;;5085372;28;20051;-72
2023/10/12 18:46:09;;;;;;;33.28;20.30;;;20.90;1.00;;;;;;5087894;28;20028;-73
2023/10/12 18:48:35;;;;;;;36.72;20.85;;;20.90;1.00;;;;;;5062698;28;20021;-72
2023/10/12 18:51:09;;;;;;;36.10;20.13;;;20.90;1.00;;;;;;5085977;28;20148;-72
2023/10/12 18:53:40;;;;;;;36.80;19.35;;;20.80;1.00;;;;;;5083952;28;20384;-73
2023/10/12 18:56:07;;;;;;;41.67;20.45;;;20.80;2.50;;;;;;5083332;28;20024;-73
2023/10/12 18:58:34;;;;;;;37.90;20.02;;;20.70;4.10;;;;;;5078996;28;20214;-73
2023/10/12 19:01:02;;;;;;;40.58;21.52;;;20.70;6.10;;;;;;5084286;28;20035;-73
2023/10/12 19:03:29;;;;;;;34.45;20.38;;;20.70;6.30;;;;;;5063152;28;20416;-73
2023/10/12 19:05:55;;;;;;;38.97;21.45;;;20.70;7.50;;;;;;5083468;28;20032;-73
2023/10/12 19:08:22;;;;;;;38.20;22.02;;;20.70;7.90;;;;;;5083324;28;20165;-73
2023/10/12 19:10:48;;;;;;;37.08;21.67;;;20.70;8.10;;;;;;5078990;28;20081;-73
2023/10/12 19:13:17;;;;;;;38.67;20.73;;;20.70;6.70;;;;;;5077146;28;20078;-73
2023/10/12 19:15:44;;;;;;;40.30;21.88;;;20.60;8.10;;;;;;5085406;28;20024;-73
2023/10/12 19:18:12;;;;;;;43.67;20.52;;;20.60;9.90;;;;;;5071177;28;20272;-73
2023/10/12 19:20:42;;;;;;;33.50;21.13;;;20.50;9.30;;;;;;5082619;28;20086;-73
2023/10/12 19:23:09;;;;;;;42.90;23.17;;;20.50;8.90;;;;;;5085069;28;20032;-73
2023/10/12 19:25:35;;;;;;;42.33;21.55;;;20.50;5.70;;;;;;5066809;28;20312;-73
2023/10/12 19:28:04;;;;;;;41.28;22.13;;;20.50;7.50;;;;;;5086186;28;20016;-73
2023/10/12 19:30:31;;;;;;;36.40;20.75;;;20.50;9.60;;;;;;5071462;28;20036;-73
2023/10/12 19:32:57;;;;;;;39.25;21.45;;;20.40;12.40;;;;;;5067103;28;20341;-73
2023/10/12 19:35:23;;;;;;;35.85;21.48;;;20.40;12.30;;;;;;5078824;28;20367;-73
2023/10/12 19:37:49;;;;;;;38.17;22.35;;;20.30;11.60;;;;;;5081074;28;20019;-73
2023/10/12 19:40:18;;;;;;;37.10;22.02;;;20.30;10.30;;;;;;5059489;28;20085;-73
2023/10/12 19:42:55;;;;;;;32.65;21.35;;;20.30;11.90;;;;;;5082151;28;20028;-73
2023/10/12 19:45:23;;;;;;;36.33;22.55;;;20.20;13.30;;;;;;5074765;28;20052;-73
2023/10/12 19:47:48;;;;;;;36.30;21.92;;;20.20;12.30;;;;;;5080443;28;20013;-73
2023/10/12 19:50:14;;;;;;;41.17;23.48;;;20.20;13.00;;;;;;5075402;28;20521;-73
2023/10/12 19:52:40;;;;;;;43.42;23.38;;;20.20;10.90;;;;;;5082651;28;20016;-73
2023/10/12 19:55:06;;;;;;;39.28;22.88;;;20.20;9.90;;;;;;5082068;28;20450;-73
2023/10/12 19:57:33;;;;;;;43.28;24.02;;;20.20;9.10;;;;;;5072679;28;20474;-73
2023/10/12 20:00:19;;;;;;;45.85;23.85;;;20.20;9.10;;;;;;5062713;28;20069;-73
2023/10/12 20:02:46;;;;;;;33.58;22.33;;;20.20;9.00;;;;;;5081312;28;20112;-73
2023/10/12 20:05:13;;;;;;;39.35;23.40;;;20.10;11.70;;;;;;5061282;28;20398;-73
2023/10/12 20:07:39;;;;;;;47.17;22.50;;;20.10;14.90;;;;;;5085286;28;20025;-73
2023/10/12 20:10:11;;;;;;;41.95;23.52;;;20.00;13.40;;;;;;5077568;28;20040;-73
2023/10/12 20:12:38;;;;;;;43.42;24.10;;;20.00;15.60;;;;;;5065998;28;20017;-73
2023/10/12 20:15:08;;;;;;;34.20;22.98;;;20.00;16.20;;;;;;5081081;28;20103;-73
2023/10/12 20:17:33;;;;;;;35.45;22.83;;;20.00;17.20;;;;;;5083905;28;20021;-73
2023/10/12 20:19:59;;;;;;;43.15;22.63;;;19.90;18.30;;;;;;5076007;28;20413;-73
2023/10/12 20:22:26;;;;;;;45.28;24.80;;;19.90;18.80;;;;;;5077362;28;20024;-73
2023/10/12 20:24:52;;;;;;;44.25;25.17;;;19.90;17.90;;;;;;5076933;28;20363;-73
2023/10/12 20:27:18;;;;;;;38.22;24.25;;;19.90;18.10;;;;;;5077184;28;20111;-73
2023/10/12 20:29:44;;;;;;;43.53;25.55;;;19.80;18.60;;;;;;5076250;28;20052;-74
2023/10/12 20:32:10;;;;;;;42.90;25.17;;;19.80;18.70;;;;;;5083108;28;20099;-73
2023/10/12 20:34:36;;;;;;;42.17;25.73;;;19.80;18.70;;;;;;5074816;28;20100;-73
2023/10/12 20:37:03;;;;;;;42.45;25.50;;;19.80;19.30;;;;;;5079287;28;20026;-73
2023/10/12 20:39:30;;;;;;;42.70;25.58;;;19.80;19.90;;;;;;5080376;28;20088;-73
2023/10/12 20:41:56;;;;;;;40.72;25.38;;;19.80;17.20;;;;;;5086057;28;20107;-73
2023/10/12 20:44:22;;;;;;;42.08;24.33;;;19.80;19.80;;;;;;5081770;28;20475;-73
2023/10/12 20:46:50;;;;;;;39.15;25.15;;;19.80;19.40;;;;;;5069855;28;20473;-73
2023/10/12 20:49:20;;;;;;;40.35;24.63;;;19.80;18.50;;;;;;5079112;28;20041;-73
2023/10/12 20:51:48;;;;;;;46.50;23.40;;;19.70;18.60;;;;;;5064940;28;20048;-73
2023/10/12 20:54:14;;;;;;;46.00;25.27;;;19.70;19.30;;;;;;5065586;28;20115;-73